Time;durP1;ratioP1;P1;durP2;ratioP2;P2;SDS_P1;SDS_P2;PMS_P1;PMS_P2;Temp;Humidity;BMP_temperature;BMP_pressure;BME280_temperature;BME280_humidity;BME280_pressure;Samples;Min_cycle;Max_cycle;Signal;HPM_P1;HPM_P2
2023/10/19 00:01:39;;;;;;;8.15;6.13;;;;;;;8.82;60.14;93938.56;4965090;28;20038;-77
2023/10/19 00:04:45;;;;;;;9.55;7.15;;;;;;;8.96;60.25;93941.97;4969364;28;20049;-78
2023/10/19 00:07:44;;;;;;;7.85;6.03;;;;;;;8.79;59.85;93921.41;4969429;28;20085;-78
2023/10/19 00:10:38;;;;;;;8.10;6.43;;;;;;;8.74;60.83;93921.53;4967932;28;20061;-78
2023/10/19 00:13:06;;;;;;;17.40;6.53;;;;;;;8.83;60.41;93926.91;4974649;28;20027;-79
2023/10/19 00:15:51;;;;;;;7.78;5.85;;;;;;;8.62;60.58;93891.28;4961650;28;20038;-76
2023/10/19 00:18:52;;;;;;;6.68;5.65;;;;;;;8.93;59.79;93924.03;4976255;28;20080;-78
2023/10/19 00:21:50;;;;;;;7.18;5.82;;;;;;;8.90;59.72;93925.38;4980127;28;20469;-78
2023/10/19 00:24:25;;;;;;;6.47;5.78;;;;;;;8.91;60.16;93920.88;4962615;28;20042;-78
2023/10/19 00:27:22;;;;;;;8.80;5.97;;;;;;;8.96;59.31;93913.59;4980301;28;20034;-75
2023/10/19 00:30:35;;;;;;;8.10;6.63;;;;;;;8.76;60.08;93894.69;4969865;28;20035;-76
2023/10/19 00:33:22;;;;;;;8.85;6.35;;;;;;;8.80;59.92;93911.59;4973449;28;20046;-77
2023/10/19 00:36:30;;;;;;;7.65;6.68;;;;;;;8.79;60.11;93910.00;4972747;28;20044;-78
2023/10/19 00:39:27;;;;;;;10.60;7.00;;;;;;;8.70;60.58;93898.56;4973752;28;20053;-77
2023/10/19 00:42:31;;;;;;;6.78;5.97;;;;;;;8.65;60.57;93891.50;4963683;28;20052;-76
2023/10/19 00:45:12;;;;;;;8.23;6.20;;;;;;;8.67;60.27;93880.56;4977726;28;20586;-80
2023/10/19 00:47:58;;;;;;;7.70;5.78;;;;;;;8.63;60.32;93890.22;4973638;28;20104;-78
2023/10/19 00:50:40;;;;;;;9.77;5.75;;;;;;;8.65;60.80;93898.66;4958982;28;20046;-77
2023/10/19 00:53:39;;;;;;;7.20;6.50;;;;;;;8.73;60.67;93901.38;4966675;28;21291;-80
2023/10/19 00:57:03;;;;;;;7.88;6.45;;;;;;;8.52;61.00;93893.06;4981178;28;20049;-76
2023/10/19 01:00:30;;;;;;;8.82;7.55;;;;;;;8.49;60.80;93901.63;4974265;28;20125;-79
2023/10/19 01:03:23;;;;;;;10.18;6.43;;;;;;;8.29;61.17;93862.31;4945463;28;20504;-79
2023/10/19 01:06:22;;;;;;;7.75;6.40;;;;;;;8.00;60.90;93816.81;4975035;28;20041;-78
2023/10/19 01:09:05;;;;;;;7.88;6.18;;;;;;;8.48;60.77;93900.06;4971404;28;20038;-79
2023/10/19 01:11:58;;;;;;;6.90;5.63;;;;;;;8.49;60.46;93887.59;4965069;28;20574;-78
2023/10/19 01:14:51;;;;;;;9.27;6.32;;;;;;;8.70;60.59;93904.66;4965551;28;20034;-79
2023/10/19 01:18:13;;;;;;;6.70;6.00;;;;;;;8.68;61.17;93909.44;4970977;28;20137;-78
2023/10/19 01:21:18;;;;;;;7.82;6.25;;;;;;;8.76;60.74;93905.28;4965369;28;20440;-78
2023/10/19 01:24:16;;;;;;;8.03;6.17;;;;;;;8.47;60.69;93876.50;4966685;28;20038;-78
2023/10/19 01:26:59;;;;;;;7.22;5.68;;;;;;;8.53;61.08;93907.91;4962618;28;20081;-78
2023/10/19 01:30:00;;;;;;;8.65;5.82;;;;;;;8.30;60.29;93853.28;4953410;28;20105;-79
2023/10/19 01:33:02;;;;;;;6.90;5.80;;;;;;;8.09;60.97;93839.66;4978444;28;20038;-80
2023/10/19 01:38:54;;;;;;;8.00;6.38;;;;;;;8.52;61.03;93890.44;4957608;28;20061;-79
2023/10/19 01:41:52;;;;;;;7.32;5.72;;;;;;;8.51;61.09;93888.84;4950694;28;20608;-79
2023/10/19 01:44:51;;;;;;;7.47;6.15;;;;;;;8.23;60.94;93842.28;4949685;28;20042;-78
2023/10/19 01:47:35;;;;;;;7.80;6.20;;;;;;;7.92;61.74;93825.47;4963130;28;20038;-78
2023/10/19 01:50:24;;;;;;;6.55;5.80;;;;;;;8.53;60.99;93902.59;4937875;28;20625;-78
2023/10/19 01:53:26;;;;;;;7.95;6.20;;;;;;;8.59;61.05;93909.38;4947410;28;20039;-76
2023/10/19 01:56:42;;;;;;;8.15;5.53;;;;;;;8.68;60.44;93911.31;4938928;28;20031;-78
2023/10/19 01:59:49;;;;;;;8.02;6.45;;;;;;;8.59;60.34;93906.72;4936395;28;20115;-78
2023/10/19 02:02:49;;;;;;;8.07;6.35;;;;;;;8.46;61.17;93907.50;4927239;28;20042;-77
2023/10/19 02:05:39;;;;;;;7.53;6.07;;;;;;;8.40;61.56;93902.63;4941049;28;20133;-79
2023/10/19 02:08:26;;;;;;;7.63;6.25;;;;;;;8.07;61.72;93851.66;4948151;28;20106;-79
2023/10/19 02:11:24;;;;;;;7.60;5.72;;;;;;;8.33;60.95;93892.41;4931719;28;20034;-77
2023/10/19 02:14:33;;;;;;;5.75;5.15;;;;;;;8.48;60.94;93905.34;4959379;28;20026;-78
2023/10/19 02:17:34;;;;;;;7.78;6.00;;;;;;;8.15;61.83;93867.63;4948006;28;20059;-78
2023/10/19 02:20:33;;;;;;;7.80;6.65;;;;;;;8.53;61.01;93909.78;4943453;28;20513;-77
2023/10/19 02:23:07;;;;;;;7.82;6.32;;;;;;;8.30;60.49;93874.47;4941276;28;20114;-78
2023/10/19 02:25:53;;;;;;;8.55;6.63;;;;;;;8.36;60.87;93899.00;4967130;28;20080;-76
2023/10/19 02:29:09;;;;;;;7.40;5.85;;;;;;;8.39;61.03;93901.84;4963673;28;20045;-78
2023/10/19 02:32:19;;;;;;;6.78;4.88;;;;;;;8.22;60.77;93885.00;4946309;28;22238;-78
2023/10/19 02:35:23;;;;;;;;;;;;;;;8.29;60.56;93899.41;4960106;28;20034;-78
2023/10/19 02:38:48;;;;;;;7.93;6.60;;;;;;;8.24;60.11;93904.81;4953616;28;19926;-77
2023/10/19 02:41:47;;;;;;;8.95;5.93;;;;;;;8.10;60.22;93878.31;4946991;28;20050;-78
2023/10/19 02:44:31;;;;;;;7.65;5.70;;;;;;;8.37;60.13;93896.03;4946072;28;20105;-75
2023/10/19 02:47:42;;;;;;;5.93;5.35;;;;;;;7.96;60.02;93866.94;4956699;28;20203;-76
2023/10/19 02:50:37;;;;;;;9.65;7.70;;;;;;;8.17;60.54;93907.03;4963844;28;20058;-79
2023/10/19 02:53:32;;;;;;;10.75;8.20;;;;;;;8.14;60.43;93894.41;4926927;28;20318;-78
2023/10/19 02:56:47;;;;;;;8.40;6.40;;;;;;;8.04;60.38;93887.44;4958791;28;20070;-77
2023/10/19 02:59:39;;;;;;;8.50;6.30;;;;;;;8.00;60.69;93867.13;4932731;28;20034;-75
2023/10/19 03:02:44;;;;;;;7.93;6.50;;;;;;;7.86;60.26;93845.97;4956178;28;20042;-78
2023/10/19 03:05:47;;;;;;;10.20;6.38;;;;;;;8.03;61.25;93896.47;4952705;28;20038;-79
2023/10/19 03:08:40;;;;;;;11.80;8.98;;;;;;;7.61;61.06;93827.88;4959645;28;20055;-78
2023/10/19 03:11:45;;;;;;;16.08;10.20;;;;;;;8.08;60.88;93875.16;4946177;28;20086;-79
2023/10/19 03:14:48;;;;;;;23.35;13.30;;;;;;;8.19;61.05;93891.66;4957706;28;20105;-79
2023/10/19 03:17:52;;;;;;;26.25;14.05;;;;;;;8.22;61.17;93875.16;4951042;28;20043;-77
2023/10/19 03:20:42;;;;;;;21.23;12.15;;;;;;;8.21;61.48;93892.16;4950989;28;20034;-78
2023/10/19 03:23:28;;;;;;;21.05;13.10;;;;;;;8.07;61.93;93891.38;4937354;28;22477;-77
2023/10/19 03:26:38;;;;;;;16.60;11.10;;;;;;;8.10;61.54;93896.06;4953028;28;20081;-78
2023/10/19 03:29:38;;;;;;;15.32;10.73;;;;;;;7.66;62.45;93849.75;4955036;28;20429;-77
2023/10/19 03:32:42;;;;;;;14.82;9.88;;;;;;;7.91;61.58;93900.69;4962401;28;20065;-78
2023/10/19 03:35:48;;;;;;;13.65;9.27;;;;;;;7.81;61.48;93882.34;4962850;28;20050;-77
2023/10/19 03:39:11;;;;;;;12.32;8.73;;;;;;;7.90;60.65;93888.53;4964456;28;20038;-78
2023/10/19 03:42:05;;;;;;;14.77;10.55;;;;;;;7.90;60.78;93877.94;4942913;28;20141;-79
2023/10/19 03:45:13;;;;;;;13.00;8.95;;;;;;;7.88;61.38;93893.31;4948716;28;20133;-78
2023/10/19 03:48:34;;;;;;;15.65;9.80;;;;;;;7.75;60.77;93871.06;4940957;28;20461;-78
2023/10/19 03:55:11;;;;;;;12.95;9.82;;;;;;;7.54;61.40;93846.78;4978331;28;20037;-79
2023/10/19 03:58:16;;;;;;;14.20;10.45;;;;;;;7.58;61.53;93865.53;4945015;28;20133;-79
2023/10/19 04:01:31;;;;;;;15.45;10.52;;;;;;;7.64;61.15;93869.63;4959507;28;20026;-77
2023/10/19 04:04:43;;;;;;;15.55;11.23;;;;;;;7.24;60.88;93808.44;4947956;28;20386;-76
2023/10/19 04:08:12;;;;;;;17.92;11.40;;;;;;;7.54;61.30;93867.97;4930901;28;20039;-79
2023/10/19 04:11:50;;;;;;;25.15;15.40;;;;;;;7.62;61.72;93874.47;4899537;28;20488;-75
2023/10/19 04:14:46;;;;;;;19.55;13.25;;;;;;;6.79;61.62;93782.78;4923929;28;20050;-78
2023/10/19 04:17:48;;;;;;;16.80;10.85;;;;;;;7.39;61.82;93860.28;4955182;28;20113;-76
2023/10/19 04:20:42;;;;;;;15.80;11.30;;;;;;;7.23;62.09;93843.13;4963463;28;20638;-77
2023/10/19 04:23:34;;;;;;;16.60;12.10;;;;;;;7.14;61.68;93829.00;4970802;28;20074;-78
2023/10/19 04:26:48;;;;;;;17.00;12.35;;;;;;;7.07;62.44;93839.16;4946020;28;21093;-77
2023/10/19 04:29:46;;;;;;;15.60;11.23;;;;;;;7.47;61.78;93870.22;4972015;28;20050;-78
2023/10/19 04:32:39;;;;;;;11.27;9.33;;;;;;;7.55;61.64;93872.19;4943782;28;20049;-78
2023/10/19 04:38:33;;;;;;;10.70;9.10;;;;;;;7.40;62.19;93867.16;4961169;28;20092;-78
2023/10/19 04:41:39;;;;;;;9.23;8.20;;;;;;;7.35;61.86;93861.16;4962247;28;20082;-78
2023/10/19 04:44:42;;;;;;;15.43;8.05;;;;;;;6.97;62.02;93813.66;4966247;28;20045;-77
2023/10/19 04:47:42;;;;;;;10.02;8.63;;;;;;;7.17;61.98;93828.41;4962037;28;20042;-76
2023/10/19 04:50:41;;;;;;;12.40;8.80;;;;;;;7.28;61.95;93835.91;4973894;28;20038;-76
2023/10/19 04:53:42;;;;;;;11.05;8.80;;;;;;;7.15;62.65;93846.41;4979081;28;20092;-78
2023/10/19 04:56:39;;;;;;;10.55;8.32;;;;;;;7.39;62.49;93856.84;4961185;28;20054;-78
2023/10/19 04:59:56;;;;;;;12.85;7.40;;;;;;;6.93;62.69;93775.66;4965549;28;20046;-78
2023/10/19 05:03:06;;;;;;;12.45;9.20;;;;;;;7.26;63.53;93847.81;4962075;28;20045;-79
2023/10/19 05:06:23;;;;;;;16.23;10.82;;;;;;;7.34;64.62;93839.22;4966149;28;20104;-77
2023/10/19 05:09:44;;;;;;;23.48;14.57;;;;;;;7.65;64.18;93850.03;4972576;28;20050;-79
2023/10/19 05:12:47;;;;;;;25.50;15.80;;;;;;;7.51;65.85;93842.09;4962954;28;20129;-78
2023/10/19 05:15:56;;;;;;;36.53;19.83;;;;;;;7.75;66.69;93870.25;4969350;28;20061;-77
2023/10/19 05:18:45;;;;;;;37.28;20.75;;;;;;;7.81;67.05;93858.50;4977616;28;20050;-79
2023/10/19 05:21:34;;;;;;;79.40;21.83;;;;;;;6.97;67.28;93712.41;4961963;28;20057;-78
2023/10/19 05:24:40;;;;;;;31.45;20.35;;;;;;;7.76;67.00;93824.19;4978118;28;20050;-75
2023/10/19 05:27:42;;;;;;;73.88;23.08;;;;;;;7.89;67.55;93849.88;4950342;28;20550;-78
2023/10/19 05:30:55;;;;;;;119.10;22.67;;;;;;;7.85;68.22;93856.84;4979836;28;20050;-76
2023/10/19 05:34:04;;;;;;;82.32;22.00;;;;;;;7.65;68.45;93837.59;4973818;28;20041;-79
2023/10/19 05:36:58;;;;;;;36.13;21.13;;;;;;;7.75;68.20;93825.25;4969403;28;20048;-79
2023/10/19 05:39:59;;;;;;;86.55;21.35;;;;;;;7.87;67.97;93850.19;4967960;28;20062;-79
2023/10/19 05:43:14;;;;;;;82.05;23.27;;;;;;;7.83;69.11;93882.81;4975251;28;20069;-78
2023/10/19 05:46:25;;;;;;;69.93;21.17;;;;;;;7.71;69.12;93854.16;4978535;28;20054;-77
2023/10/19 05:49:21;;;;;;;64.93;21.27;;;;;;;8.03;68.74;93891.16;4976181;28;20061;-78
2023/10/19 05:52:26;;;;;;;73.53;22.75;;;;;;;7.83;68.83;93845.75;4973363;28;20145;-75
2023/10/19 05:55:31;;;;;;;73.35;21.45;;;;;;;7.82;69.55;93882.06;4961482;28;20128;-79
2023/10/19 05:58:40;;;;;;;32.83;19.90;;;;;;;8.02;68.88;93870.28;4951028;28;20057;-78
2023/10/19 06:01:53;;;;;;;73.03;22.15;;;;;;;7.89;68.03;93841.94;4962509;28;20047;-77
2023/10/19 06:05:23;;;;;;;29.52;19.05;;;;;;;7.68;69.72;93881.19;4959171;28;20046;-77
2023/10/19 06:08:14;;;;;;;40.00;22.83;;;;;;;7.23;71.94;93851.84;4974258;28;20033;-76
2023/10/19 06:11:42;;;;;;;43.13;22.80;;;;;;;7.54;71.32;93883.06;4959183;28;20044;-77
2023/10/19 06:14:38;;;;;;;35.45;20.92;;;;;;;7.58;71.62;93874.22;4975379;28;20072;-78
2023/10/19 06:17:25;;;;;;;31.63;20.83;;;;;;;7.97;70.12;93878.34;4963863;28;20054;-78
2023/10/19 06:20:00;;;;;;;31.70;20.27;;;;;;;7.95;70.49;93886.56;4966079;28;21311;-76
2023/10/19 06:22:51;;;;;;;33.63;21.02;;;;;;;7.68;71.17;93867.97;4984951;28;20053;-78
2023/10/19 06:25:28;;;;;;;39.03;22.40;;;;;;;7.71;71.23;93868.19;4962621;28;20047;-78
2023/10/19 06:28:18;;;;;;;40.22;24.60;;;;;;;7.89;70.92;93877.13;4945693;28;20150;-75
2023/10/19 06:30:53;;;;;;;46.13;26.02;;;;;;;7.79;71.51;93863.31;4959568;28;20042;-78
2023/10/19 06:33:26;;;;;;;36.95;23.17;;;;;;;8.03;70.60;93869.97;4956332;28;20165;-76
2023/10/19 06:36:09;;;;;;;35.83;21.33;;;;;;;8.10;70.63;93888.13;4974453;28;20108;-79
2023/10/19 06:38:54;;;;;;;35.40;22.20;;;;;;;8.16;69.84;93863.13;4965213;28;20101;-77
2023/10/19 06:41:40;;;;;;;;;;;;;;;8.51;69.03;93891.50;4945665;28;20061;-79
2023/10/19 06:44:13;;;;;;;39.20;22.70;;;;;;;8.14;69.17;93875.84;4951049;28;19928;-79
2023/10/19 06:46:59;;;;;;;37.67;22.73;;;;;;;8.39;68.90;93874.56;4950087;28;20031;-79
2023/10/19 06:49:53;;;;;;;34.72;23.08;;;;;;;8.48;68.66;93862.16;4954581;28;20031;-78
2023/10/19 06:52:24;;;;;;;37.58;24.67;;;;;;;8.68;68.28;93874.19;4953680;28;20042;-79
2023/10/19 06:54:58;;;;;;;31.98;23.15;;;;;;;8.73;68.61;93876.72;4950626;28;20078;-79
2023/10/19 06:57:27;;;;;;;42.70;25.30;;;;;;;8.44;70.05;93869.16;4950626;28;20070;-78
2023/10/19 06:59:57;;;;;;;41.53;23.85;;;;;;;8.26;70.52;93844.34;4947861;28;20137;-79
2023/10/19 07:02:44;;;;;;;38.25;23.17;;;;;;;8.35;70.86;93860.34;4945374;28;20137;-78
2023/10/19 07:05:30;;;;;;;35.05;22.83;;;;;;;8.56;70.30;93861.44;4949976;28;20046;-77
2023/10/19 07:08:15;;;;;;;30.27;20.15;;;;;;;8.52;70.18;93861.28;4954887;28;20042;-76
2023/10/19 07:10:49;;;;;;;28.00;18.75;;;;;;;8.56;70.04;93869.41;4933283;28;20055;-79
2023/10/19 07:13:21;;;;;;;25.70;17.38;;;;;;;8.63;69.61;93874.31;4949191;28;20043;-78
2023/10/19 07:16:03;;;;;;;26.67;18.33;;;;;;;8.61;68.80;93873.84;4942924;28;20057;-77
2023/10/19 07:18:29;;;;;;;25.17;18.25;;;;;;;8.54;68.95;93845.06;4940532;28;20047;-77
2023/10/19 07:21:17;;;;;;;30.02;17.45;;;;;;;8.96;68.24;93873.00;4951702;28;20054;-78
2023/10/19 07:24:11;;;;;;;27.27;18.10;;;;;;;9.07;67.66;93877.00;4963597;28;20561;-78
2023/10/19 07:27:25;;;;;;;21.52;16.65;;;;;;;8.92;67.48;93862.22;4942777;28;20077;-78
2023/10/19 07:29:56;;;;;;;27.80;16.33;;;;;;;9.00;67.86;93864.16;4935709;28;20058;-78
2023/10/19 07:32:42;;;;;;;19.42;13.15;;;;;;;8.86;66.91;93852.03;4944418;28;20121;-79
2023/10/19 07:35:26;;;;;;;20.77;12.45;;;;;;;9.39;65.19;93871.44;4957754;28;20476;-77
2023/10/19 07:38:01;;;;;;;18.02;13.30;;;;;;;9.38;64.30;93827.44;4939854;28;20067;-79
2023/10/19 07:40:34;;;;;;;19.55;13.50;;;;;;;9.06;64.21;93840.94;4971745;28;20410;-79
2023/10/19 07:43:13;;;;;;;21.95;12.88;;;;;;;9.33;65.12;93877.22;4942736;28;20043;-79
2023/10/19 07:46:02;;;;;;;18.00;12.75;;;;;;;9.11;65.10;93840.84;4973581;28;20543;-78
2023/10/19 07:48:32;;;;;;;20.98;12.30;;;;;;;9.16;65.35;93853.19;4947202;28;20050;-78
2023/10/19 07:51:08;;;;;;;26.98;14.80;;;;;;;9.40;64.34;93854.44;4967023;28;20045;-79
2023/10/19 07:53:45;;;;;;;18.27;13.80;;;;;;;9.32;65.37;93886.25;4953865;28;20108;-77
2023/10/19 07:56:26;;;;;;;20.45;14.10;;;;;;;9.49;63.75;93880.28;4941211;28;20641;-78
2023/10/19 07:58:59;;;;;;;20.00;13.30;;;;;;;9.10;64.99;93860.47;4960211;28;20093;-77
2023/10/19 08:01:31;;;;;;;18.80;13.75;;;;;;;9.30;65.47;93885.75;4951795;28;20023;-78
2023/10/19 08:04:00;;;;;;;23.35;15.65;;;;;;;9.27;64.94;93883.72;4920855;28;20054;-78
2023/10/19 08:06:48;;;;;;;21.08;13.93;;;;;;;9.64;64.97;93885.97;4940737;28;20034;-78
2023/10/19 08:09:45;;;;;;;22.65;13.77;;;;;;;9.83;64.30;93867.94;4951365;28;20251;-77
2023/10/19 08:13:06;;;;;;;24.90;15.07;;;;;;;9.07;63.88;93842.50;4949977;28;20331;-76
2023/10/19 08:15:58;;;;;;;22.77;14.60;;;;;;;8.97;63.68;93810.91;4956382;28;20042;-77
2023/10/19 08:18:52;;;;;;;22.25;15.80;;;;;;;9.54;63.40;93829.69;4972573;28;20042;-77
2023/10/19 08:21:41;;;;;;;25.80;15.82;;;;;;;10.09;62.01;93872.56;4971136;28;20153;-78
2023/10/19 08:24:34;;;;;;;18.70;13.40;;;;;;;10.29;61.87;93872.78;4955884;28;20050;-78
2023/10/19 08:27:29;;;;;;;20.38;13.43;;;;;;;10.31;60.85;93862.63;4963676;28;20042;-79
2023/10/19 08:30:08;;;;;;;19.65;12.38;;;;;;;10.18;61.85;93881.34;4954341;28;20682;-78
2023/10/19 08:33:07;;;;;;;19.92;13.18;;;;;;;10.40;61.42;93872.53;4971968;28;20505;-79
2023/10/19 08:35:45;;;;;;;20.30;12.90;;;;;;;10.54;61.33;93878.50;4956401;28;20081;-77
2023/10/19 08:38:20;;;;;;;20.33;13.68;;;;;;;10.73;60.10;93871.00;4940194;28;20054;-77
2023/10/19 08:41:02;;;;;;;17.42;12.85;;;;;;;10.67;60.32;93866.91;4951497;28;20061;-77
2023/10/19 08:43:56;;;;;;;15.23;10.85;;;;;;;10.79;60.05;93879.63;4972618;28;20026;-77
2023/10/19 08:46:35;;;;;;;26.02;14.20;;;;;;;10.59;59.94;93859.72;4940933;28;20042;-80
2023/10/19 08:49:14;;;;;;;16.20;11.63;;;;;;;10.68;59.53;93861.28;4936173;28;20062;-78
2023/10/19 08:52:15;;;;;;;20.17;12.45;;;;;;;10.25;61.19;93847.13;4944783;28;20046;-78
2023/10/19 08:55:14;;;;;;;17.15;11.60;;;;;;;10.16;60.36;93875.56;4939917;28;20129;-77
2023/10/19 08:57:59;;;;;;;;;;;;;;;10.22;60.56;93882.31;4953299;28;20046;-76
2023/10/19 09:01:09;;;;;;;17.88;11.70;;;;;;;10.44;60.17;93878.78;4949234;28;20400;-78
2023/10/19 09:04:43;;;;;;;17.33;12.82;;;;;;;10.78;60.30;93880.69;4960286;28;20100;-77
2023/10/19 09:11:46;;;;;;;14.90;11.23;;;;;;;11.37;58.22;93855.94;4965923;28;20067;-79
2023/10/19 09:15:18;;;;;;;13.52;10.60;;;;;;;10.68;58.21;93783.38;4898264;28;20129;-77
2023/10/19 09:18:44;;;;;;;16.25;11.75;;;;;;;10.64;58.28;93803.72;4952216;28;20141;-78
2023/10/19 09:28:56;;;;;;;8.80;7.15;;;;;;;11.34;57.67;93843.25;4958069;28;20275;-79
2023/10/19 09:31:54;;;;;;;13.52;9.43;;;;;;;11.64;57.55;93830.81;4911378;28;20154;-76
2023/10/19 09:35:08;;;;;;;11.30;8.02;;;;;;;11.64;57.27;93803.41;4955792;28;20054;-79
2023/10/19 09:38:25;;;;;;;10.30;8.32;;;;;;;11.75;55.35;93831.25;4940252;28;20047;-76
2023/10/19 09:41:52;;;;;;;11.35;9.52;;;;;;;11.50;55.15;93825.66;4927139;28;20142;-79
2023/10/19 09:45:05;;;;;;;13.23;9.52;;;;;;;10.87;56.42;93705.88;4920569;28;20517;-77
2023/10/19 09:48:19;;;;;;;11.70;8.15;;;;;;;11.73;55.37;93814.81;4938239;28;20066;-76
2023/10/19 09:51:44;;;;;;;9.15;7.55;;;;;;;11.83;55.29;93804.56;4941952;28;20970;-78
2023/10/19 09:55:10;;;;;;;10.48;7.43;;;;;;;11.70;55.41;93794.91;4931753;28;20544;-78
2023/10/19 09:58:29;;;;;;;10.73;8.50;;;;;;;11.82;55.04;93811.00;4940526;28;20436;-77
2023/10/19 10:01:28;;;;;;;13.45;8.25;;;;;;;11.38;55.81;93811.44;4937584;28;20043;-78
2023/10/19 10:05:00;;;;;;;9.35;8.10;;;;;;;11.41;56.38;93806.28;4939976;28;20129;-79
2023/10/19 10:08:21;;;;;;;11.10;7.70;;;;;;;11.74;55.40;93809.16;4927416;28;20031;-79
2023/10/19 10:11:00;;;;;;;12.82;8.07;;;;;;;11.71;54.98;93766.38;4922333;28;20133;-78
2023/10/19 10:13:45;;;;;;;11.80;8.05;;;;;;;12.13;53.82;93801.91;4938892;28;20069;-78
2023/10/19 10:16:53;;;;;;;9.68;7.55;;;;;;;12.41;53.85;93790.47;4945865;28;20043;-81
2023/10/19 10:20:44;;;;;;;13.32;8.32;;;;;;;12.67;54.28;93787.59;4909348;28;20971;-80
2023/10/19 10:23:52;;;;;;;10.02;8.02;;;;;;;12.97;54.40;93784.84;4928362;28;20083;-79
2023/10/19 10:27:00;;;;;;;;;;;;;;;12.84;52.50;93779.47;4949391;28;20320;-78
2023/10/19 10:30:31;;;;;;;12.43;8.68;;;;;;;12.86;52.33;93763.91;4950344;28;19968;-79
2023/10/19 10:33:39;;;;;;;9.48;8.18;;;;;;;12.45;52.73;93689.22;4934260;28;20057;-78
2023/10/19 10:36:36;;;;;;;11.52;8.13;;;;;;;13.02;52.16;93741.94;4946032;28;20125;-79
2023/10/19 10:39:57;;;;;;;11.27;9.02;;;;;;;13.22;52.36;93749.88;4930584;28;20069;-79
2023/10/19 10:43:25;;;;;;;12.55;9.30;;;;;;;12.87;51.91;93706.75;4947298;28;20109;-78
2023/10/19 10:46:37;;;;;;;12.30;9.55;;;;;;;12.67;52.98;93707.56;4957504;28;20053;-80
2023/10/19 10:50:16;;;;;;;13.52;9.75;;;;;;;12.59;53.09;93715.66;4940741;28;20126;-79
2023/10/19 10:53:30;;;;;;;12.43;9.50;;;;;;;12.62;54.38;93715.78;4938859;28;20079;-79
2023/10/19 10:56:41;;;;;;;12.68;9.10;;;;;;;12.83;54.08;93695.16;4939422;28;20133;-79
2023/10/19 10:59:42;;;;;;;14.50;9.70;;;;;;;13.13;52.63;93703.03;4955969;28;20046;-79
2023/10/19 11:02:55;;;;;;;16.35;9.63;;;;;;;12.62;53.79;93697.09;4962028;28;20038;-78
2023/10/19 11:06:23;;;;;;;17.20;8.95;;;;;;;13.05;53.10;93696.69;4957584;28;20047;-78
2023/10/19 11:09:48;;;;;;;15.02;9.60;;;;;;;13.34;52.28;93698.41;4942780;28;20050;-79
2023/10/19 11:13:23;;;;;;;13.77;8.85;;;;;;;13.30;51.69;93668.09;4969658;28;20065;-78
2023/10/19 11:16:32;;;;;;;14.48;8.57;;;;;;;12.87;52.66;93669.38;4939455;28;20061;-78
2023/10/19 11:19:56;;;;;;;11.18;7.55;;;;;;;13.21;52.47;93668.22;4948458;28;20531;-77
2023/10/19 11:23:15;;;;;;;9.32;6.57;;;;;;;13.57;51.15;93670.13;4931239;28;20050;-79
2023/10/19 11:27:02;;;;;;;7.78;6.00;;;;;;;13.65;50.54;93652.44;4910247;28;20045;-77
2023/10/19 11:30:27;;;;;;;10.27;6.13;;;;;;;13.99;49.92;93661.84;4884145;28;20114;-77
2023/10/19 11:33:38;;;;;;;;;;;;;;;13.99;49.56;93654.59;4916129;28;20470;-77
2023/10/19 11:36:34;;;;;;;7.40;5.03;;;;;;;13.24;50.04;93571.41;4893789;28;19930;-76
2023/10/19 11:39:42;;;;;;;8.70;5.40;;;;;;;13.96;50.28;93646.50;4925489;28;20066;-76
2023/10/19 11:42:42;;;;;;;11.10;6.00;;;;;;;14.14;49.60;93626.38;4927381;28;20065;-77
2023/10/19 11:45:49;;;;;;;11.88;7.05;;;;;;;14.46;50.11;93625.38;4917539;28;20051;-79
2023/10/19 11:48:59;;;;;;;11.57;6.15;;;;;;;14.37;49.63;93627.44;4950613;28;20047;-75
2023/10/19 11:52:02;;;;;;;9.85;5.20;;;;;;;13.99;50.34;93611.81;4942866;28;20133;-76
2023/10/19 11:54:59;;;;;;;8.32;6.03;;;;;;;14.41;51.29;93622.16;4943923;28;20440;-75
2023/10/19 11:57:53;;;;;;;6.43;5.47;;;;;;;14.20;48.73;93582.22;4941635;28;20050;-77
2023/10/19 12:00:54;;;;;;;7.20;5.97;;;;;;;14.14;49.34;93564.88;4945101;28;20182;-79
2023/10/19 12:04:09;;;;;;;10.27;6.43;;;;;;;14.79;48.90;93627.81;4942527;28;20897;-78
2023/10/19 12:07:14;;;;;;;8.95;5.57;;;;;;;14.66;51.06;93585.41;4939539;28;20050;-78
2023/10/19 12:10:12;;;;;;;9.07;5.95;;;;;;;15.09;49.29;93625.50;4930382;28;20031;-77
2023/10/19 12:13:33;;;;;;;10.40;6.93;;;;;;;15.30;49.62;93620.63;4944687;28;20050;-77
2023/10/19 12:16:39;;;;;;;8.57;6.45;;;;;;;15.49;50.79;93616.53;4901994;28;20049;-77
2023/10/19 12:19:56;;;;;;;9.23;6.57;;;;;;;14.82;48.15;93492.47;4955515;28;20038;-77
2023/10/19 12:23:09;;;;;;;11.05;6.25;;;;;;;15.54;47.84;93613.56;4939288;28;20047;-77
2023/10/19 12:26:16;;;;;;;8.48;6.47;;;;;;;15.26;49.94;93547.44;4942632;28;20031;-77
2023/10/19 12:29:27;;;;;;;11.95;6.95;;;;;;;15.65;47.69;93606.53;4936271;28;20066;-77
2023/10/19 12:32:16;;;;;;;11.48;6.45;;;;;;;15.75;47.45;93604.09;4925375;28;20039;-78
2023/10/19 12:35:15;;;;;;;11.38;7.50;;;;;;;15.71;47.55;93576.44;4924739;28;20520;-78
2023/10/19 12:37:52;;;;;;;9.35;6.57;;;;;;;15.95;46.71;93572.72;4932216;28;20019;-76
2023/10/19 12:40:50;;;;;;;11.18;6.75;;;;;;;15.88;48.07;93551.91;4959566;28;20049;-78
2023/10/19 12:44:22;;;;;;;7.38;5.60;;;;;;;16.15;46.88;93584.22;4944654;28;20062;-77
2023/10/19 12:47:29;;;;;;;12.00;6.72;;;;;;;15.80;46.07;93541.38;4946650;28;20327;-78
2023/10/19 12:50:25;;;;;;;8.30;6.80;;;;;;;16.09;46.68;93578.38;4945416;28;20105;-78
2023/10/19 12:53:09;;;;;;;8.15;5.85;;;;;;;15.77;48.66;93526.00;4935344;28;20036;-76
2023/10/19 12:56:28;;;;;;;8.63;6.53;;;;;;;16.19;48.63;93572.44;4954693;28;20034;-76
2023/10/19 12:59:19;;;;;;;13.68;7.93;;;;;;;16.39;47.27;93589.34;4906351;28;20077;-78
2023/10/19 13:02:34;;;;;;;12.88;6.43;;;;;;;16.57;47.24;93579.72;4952944;28;20758;-78
2023/10/19 13:05:34;;;;;;;43.80;9.05;;;;;;;16.53;46.46;93575.41;4943379;28;20061;-77
2023/10/19 13:08:47;;;;;;;8.90;6.90;;;;;;;16.44;46.13;93539.97;4955150;28;20049;-77
2023/10/19 13:11:35;;;;;;;8.95;6.22;;;;;;;16.65;46.75;93567.19;4936795;28;20047;-77
2023/10/19 13:14:27;;;;;;;7.97;5.78;;;;;;;16.77;45.58;93565.09;4941104;28;20035;-78
2023/10/19 13:17:29;;;;;;;11.73;5.72;;;;;;;16.60;45.87;93536.03;4939333;28;20062;-79
2023/10/19 13:20:23;;;;;;;10.98;6.60;;;;;;;16.85;45.23;93562.56;4956110;28;20043;-77
2023/10/19 13:23:04;;;;;;;8.18;6.57;;;;;;;16.95;44.57;93556.59;4955143;28;20492;-77
2023/10/19 13:26:08;;;;;;;9.30;6.43;;;;;;;16.45;45.13;93485.16;4972386;28;20329;-76
2023/10/19 13:29:20;;;;;;;8.57;6.68;;;;;;;16.99;45.70;93552.03;4938968;28;20043;-78
2023/10/19 13:32:21;;;;;;;13.30;8.35;;;;;;;17.01;45.44;93539.78;4954728;28;20043;-76
2023/10/19 13:35:06;;;;;;;17.42;7.47;;;;;;;17.12;46.42;93529.22;4943449;28;20054;-78
2023/10/19 13:38:22;;;;;;;15.20;8.15;;;;;;;17.17;45.37;93521.66;4949501;28;20363;-76
2023/10/19 13:44:35;;;;;;;9.57;6.28;;;;;;;17.25;46.06;93516.41;4948612;28;20069;-78
2023/10/19 13:47:44;;;;;;;12.32;8.25;;;;;;;16.93;45.98;93462.16;4958386;28;20035;-75
2023/10/19 13:50:45;;;;;;;10.98;5.65;;;;;;;17.32;47.53;93516.50;4955236;28;20120;-77
2023/10/19 13:53:36;;;;;;;9.48;6.20;;;;;;;17.33;46.69;93515.34;4976005;28;20076;-77
2023/10/19 13:56:28;;;;;;;8.18;6.03;;;;;;;17.40;47.37;93510.09;4955062;28;20041;-78
2023/10/19 13:59:24;;;;;;;10.73;6.38;;;;;;;17.43;47.32;93507.44;4965272;28;20037;-77
2023/10/19 14:02:21;;;;;;;8.15;6.53;;;;;;;17.14;46.26;93452.53;4961237;28;20039;-78
2023/10/19 14:05:12;;;;;;;8.68;7.28;;;;;;;17.39;46.46;93495.88;4961024;28;20061;-78
2023/10/19 14:08:08;;;;;;;12.45;6.60;;;;;;;17.45;46.16;93493.66;4971229;28;20421;-78
2023/10/19 14:11:30;;;;;;;9.77;6.30;;;;;;;16.19;45.95;93314.88;4960302;28;20284;-77
2023/10/19 14:14:46;;;;;;;8.20;5.68;;;;;;;17.13;46.56;93448.28;4970907;28;20515;-78
2023/10/19 14:17:38;;;;;;;13.20;6.82;;;;;;;17.49;46.42;93475.66;4954998;28;20075;-76
2023/10/19 14:20:42;;;;;;;13.07;6.40;;;;;;;17.56;46.61;93473.03;4972040;28;20095;-78
2023/10/19 14:23:40;;;;;;;9.98;7.07;;;;;;;17.34;46.66;93412.09;4958107;28;20068;-79
2023/10/19 14:26:44;;;;;;;10.70;6.55;;;;;;;17.64;46.04;93429.00;4960211;28;20093;-79
2023/10/19 14:29:35;;;;;;;11.35;6.30;;;;;;;17.52;46.39;93407.69;4961233;28;20068;-78